createdAt,value
2023-01-13T00:01:12.472Z,5.85
2023-01-13T00:03:39.317Z,5.86
2023-01-13T00:06:06.690Z,5.82
2023-01-13T00:08:33.729Z,5.83
2023-01-13T00:11:00.398Z,5.80
2023-01-13T00:13:27.051Z,5.79
2023-01-13T00:15:58.248Z,5.74
2023-01-13T00:18:25.311Z,5.79
2023-01-13T00:21:02.456Z,5.82
2023-01-13T00:23:30.467Z,5.81
2023-01-13T00:25:58.028Z,5.79
2023-01-13T00:28:25.023Z,5.75
2023-01-13T00:30:51.850Z,5.71
2023-01-13T00:33:19.060Z,5.59
2023-01-13T00:35:45.781Z,5.59
2023-01-13T00:38:12.397Z,5.67
2023-01-13T00:40:38.984Z,5.64
2023-01-13T00:43:23.693Z,5.64
2023-01-13T00:45:53.338Z,5.61
2023-01-13T00:48:21.649Z,5.58
2023-01-13T00:50:58.457Z,5.54
2023-01-13T00:53:25.984Z,5.63
2023-01-13T00:56:34.081Z,5.44
2023-01-13T00:59:05.003Z,5.36
2023-01-13T01:01:31.943Z,5.35
2023-01-13T01:03:58.654Z,5.24
2023-01-13T01:06:26.788Z,5.14
2023-01-13T01:08:54.544Z,5.21
2023-01-13T01:11:26.770Z,5.24
2023-01-13T01:13:55.844Z,5.18
2023-01-13T01:16:24.204Z,5.27
2023-01-13T01:18:52.047Z,5.26
2023-01-13T01:21:19.833Z,5.18
2023-01-13T01:23:46.435Z,5.18
2023-01-13T01:26:18.866Z,5.22
2023-01-13T01:28:45.915Z,5.26
2023-01-13T01:31:23.695Z,5.24
2023-01-13T01:33:50.748Z,5.33
2023-01-13T01:36:20.136Z,5.24
2023-01-13T01:38:47.325Z,5.27
2023-01-13T01:41:22.311Z,5.28
2023-01-13T01:44:00.270Z,5.15
2023-01-13T01:46:38.732Z,5.15
2023-01-13T01:49:17.986Z,5.16
2023-01-13T01:52:12.063Z,5.11
2023-01-13T01:54:46.245Z,5.19
2023-01-13T01:57:16.501Z,5.20
2023-01-13T01:59:43.422Z,5.26
2023-01-13T02:02:10.571Z,5.24
2023-01-13T02:04:41.401Z,5.25
2023-01-13T02:07:08.295Z,5.22
2023-01-13T02:09:35.258Z,5.27
2023-01-13T02:12:20.911Z,5.35
2023-01-13T02:14:47.600Z,5.43
2023-01-13T02:17:33.081Z,5.36
2023-01-13T02:20:35.062Z,5.33
2023-01-13T02:23:50.100Z,5.29
2023-01-13T02:26:16.535Z,5.38
2023-01-13T02:29:41.160Z,5.40
2023-01-13T02:32:25.553Z,5.28
2023-01-13T02:34:56.317Z,5.22
2023-01-13T02:37:28.852Z,5.25
2023-01-13T02:40:02.122Z,5.15
2023-01-13T02:42:52.771Z,5.23
2023-01-13T02:45:23.719Z,5.23
2023-01-13T02:47:51.405Z,5.28
2023-01-13T02:50:20.144Z,5.27
2023-01-13T02:52:53.046Z,5.35
2023-01-13T02:55:27.120Z,5.38
2023-01-13T02:57:55.899Z,5.32
2023-01-13T03:00:23.457Z,5.37
2023-01-13T03:02:50.073Z,5.31
2023-01-13T03:05:17.442Z,5.36
2023-01-13T03:08:02.451Z,5.35
2023-01-13T03:10:41.407Z,5.32
2023-01-13T03:13:14.928Z,5.35
2023-01-13T03:15:59.721Z,5.37
2023-01-13T03:18:53.134Z,5.29
2023-01-13T03:21:27.490Z,5.29
2023-01-13T03:24:02.070Z,5.13
2023-01-13T03:26:43.693Z,5.13
2023-01-13T03:29:14.670Z,4.98
2023-01-13T03:31:54.188Z,5.12
2023-01-13T03:34:22.565Z,5.04
2023-01-13T03:36:51.775Z,5.05
2023-01-13T03:39:25.011Z,5.07
2023-01-13T03:41:57.274Z,5.07
2023-01-13T03:44:36.134Z,5.18
2023-01-13T03:47:11.526Z,5.22
2023-01-13T03:49:52.395Z,5.08
2023-01-13T03:52:25.364Z,5.11
2023-01-13T03:54:57.705Z,5.18
2023-01-13T03:57:27.688Z,5.16
2023-01-13T03:59:56.436Z,5.11
2023-01-13T04:02:33.217Z,4.96
2023-01-13T04:05:04.380Z,5.06
2023-01-13T04:07:37.011Z,5.04
2023-01-13T04:10:06.586Z,5.01
2023-01-13T04:12:55.485Z,4.98
2023-01-13T04:15:24.542Z,4.93
2023-01-13T04:17:51.464Z,5.00
2023-01-13T04:20:18.805Z,4.99
2023-01-13T04:22:45.470Z,4.93
2023-01-13T04:25:12.379Z,5.04
2023-01-13T04:27:38.981Z,5.06
2023-01-13T04:30:06.681Z,5.12
2023-01-13T04:32:33.163Z,5.09
2023-01-13T04:34:59.794Z,5.17
2023-01-13T04:37:26.365Z,5.21
2023-01-13T04:39:52.810Z,5.20
2023-01-13T04:42:20.263Z,5.22
2023-01-13T04:44:46.901Z,5.21
2023-01-13T04:47:13.332Z,5.13
2023-01-13T04:49:39.996Z,5.16
2023-01-13T04:52:06.983Z,5.18
2023-01-13T04:54:33.446Z,5.16
2023-01-13T04:57:00.048Z,5.17
2023-01-13T04:59:26.638Z,5.15
2023-01-13T05:01:53.211Z,5.21
2023-01-13T05:04:23.460Z,5.21
2023-01-13T05:06:50.245Z,5.19
2023-01-13T05:09:16.834Z,5.18
2023-01-13T05:12:02.404Z,5.17
2023-01-13T05:14:47.587Z,5.16
2023-01-13T05:17:20.785Z,5.08
2023-01-13T05:19:47.671Z,5.11
2023-01-13T05:22:33.020Z,5.11
2023-01-13T05:25:18.729Z,5.03
2023-01-13T05:27:45.640Z,5.02
2023-01-13T05:30:12.552Z,5.03
2023-01-13T05:32:39.263Z,5.03
2023-01-13T05:35:05.906Z,5.09
2023-01-13T05:37:32.598Z,5.06
2023-01-13T05:40:18.416Z,4.99
2023-01-13T05:43:03.473Z,5.03
2023-01-13T05:45:31.486Z,5.00
2023-01-13T05:47:58.273Z,5.03
2023-01-13T05:50:24.922Z,4.93
2023-01-13T05:52:51.633Z,4.96
2023-01-13T05:55:18.685Z,5.00
2023-01-13T05:57:45.400Z,5.04
2023-01-13T06:00:12.535Z,5.05
2023-01-13T06:02:39.869Z,5.00
2023-01-13T06:05:06.592Z,5.00
2023-01-13T06:07:33.168Z,5.00
2023-01-13T06:09:59.939Z,5.01
2023-01-13T06:12:26.422Z,4.95
2023-01-13T06:14:53.035Z,4.96
2023-01-13T06:17:20.249Z,4.99
2023-01-13T06:19:46.708Z,5.05
2023-01-13T06:22:16.784Z,5.01
2023-01-13T06:24:46.052Z,5.05
2023-01-13T06:27:12.869Z,5.07
2023-01-13T06:29:39.466Z,5.18
2023-01-13T06:32:10.464Z,5.15
2023-01-13T06:34:37.793Z,5.14
2023-01-13T06:37:05.363Z,5.13
2023-01-13T06:39:32.345Z,5.20
2023-01-13T06:42:18.698Z,5.25
2023-01-13T06:44:45.506Z,5.29
2023-01-13T06:47:12.025Z,5.26
2023-01-13T06:49:38.708Z,5.30
2023-01-13T06:52:05.516Z,5.22
2023-01-13T06:54:32.005Z,5.23
2023-01-13T06:56:58.577Z,5.17
2023-01-13T06:59:25.886Z,5.24
2023-01-13T07:01:52.691Z,5.26
2023-01-13T07:04:20.098Z,5.30
2023-01-13T07:06:46.719Z,5.31
2023-01-13T07:09:13.172Z,5.34
2023-01-13T07:11:39.911Z,5.35
2023-01-13T07:14:25.309Z,5.41
2023-01-13T07:16:53.207Z,5.45
2023-01-13T07:19:23.793Z,5.38
2023-01-13T07:21:51.844Z,5.40
2023-01-13T07:24:20.134Z,5.38
2023-01-13T07:26:46.832Z,5.47
2023-01-13T07:29:13.576Z,5.45
2023-01-13T07:31:40.303Z,5.56
2023-01-13T07:34:07.436Z,5.55
2023-01-13T07:36:34.354Z,5.47
2023-01-13T07:39:01.246Z,5.43
2023-01-13T07:41:46.432Z,5.48
2023-01-13T07:44:13.261Z,5.44
2023-01-13T07:46:40.168Z,5.49
2023-01-13T07:49:07.104Z,5.47
2023-01-13T07:51:37.524Z,5.46
2023-01-13T07:54:04.427Z,5.43
2023-01-13T07:56:31.423Z,5.49
2023-01-13T07:59:00.525Z,5.56
2023-01-13T08:01:31.881Z,5.47
2023-01-13T08:03:59.075Z,5.54
2023-01-13T08:06:26.430Z,5.45
2023-01-13T08:08:53.337Z,5.54
2023-01-13T08:11:23.286Z,5.56
2023-01-13T08:13:50.202Z,5.57
2023-01-13T08:16:17.506Z,5.57
2023-01-13T08:18:44.093Z,5.55
2023-01-13T08:21:13.428Z,5.72
2023-01-13T08:23:40.904Z,5.69
2023-01-13T08:26:10.445Z,5.70
2023-01-13T08:28:37.416Z,5.81
2023-01-13T08:31:06.346Z,5.67
2023-01-13T08:33:33.422Z,5.74
2023-01-13T08:36:06.876Z,5.81
2023-01-13T08:38:34.479Z,5.79
2023-01-13T08:41:01.223Z,5.77
2023-01-13T08:43:27.925Z,5.89
2023-01-13T08:45:59.272Z,5.83
2023-01-13T08:48:26.687Z,5.91
2023-01-13T08:50:53.533Z,5.84
2023-01-13T08:53:20.750Z,6.00
2023-01-13T08:55:47.366Z,6.02
2023-01-13T08:58:16.273Z,6.00
2023-01-13T09:00:43.648Z,6.03
2023-01-13T09:03:10.187Z,6.11
2023-01-13T09:05:36.969Z,6.06
2023-01-13T09:08:03.542Z,6.09
2023-01-13T09:10:30.020Z,6.13
2023-01-13T09:13:11.836Z,6.16
2023-01-13T09:15:42.556Z,6.12
2023-01-13T09:18:09.785Z,6.13
2023-01-13T09:20:36.532Z,6.20
2023-01-13T09:23:03.719Z,6.14
2023-01-13T09:25:30.771Z,6.25
2023-01-13T09:27:57.526Z,6.22
2023-01-13T09:30:24.838Z,6.26
2023-01-13T09:33:11.585Z,6.36
2023-01-13T09:35:38.461Z,6.40
2023-01-13T09:38:06.127Z,6.44
2023-01-13T09:40:32.867Z,6.40
2023-01-13T09:43:23.356Z,6.48
2023-01-13T09:45:55.522Z,6.55
2023-01-13T09:48:29.625Z,6.54
2023-01-13T09:51:21.042Z,6.54
2023-01-13T09:53:55.902Z,6.59
2023-01-13T09:56:23.370Z,6.53
2023-01-13T09:58:50.120Z,6.60
2023-01-13T10:01:16.755Z,6.69
2023-01-13T10:03:43.625Z,6.64
2023-01-13T10:06:21.785Z,6.83
2023-01-13T10:08:49.386Z,6.72
2023-01-13T10:11:42.443Z,6.80
2023-01-13T10:14:16.862Z,6.87
2023-01-13T10:17:18.315Z,6.80
2023-01-13T10:19:50.475Z,6.91
2023-01-13T10:22:49.445Z,6.91
2023-01-13T10:25:37.643Z,7.02
2023-01-13T10:28:14.884Z,7.04
2023-01-13T10:30:44.665Z,7.07
2023-01-13T10:33:20.586Z,7.03
2023-01-13T10:36:01.213Z,7.08
2023-01-13T10:38:36.655Z,7.15
2023-01-13T10:41:06.852Z,7.21
2023-01-13T10:43:33.410Z,7.16
2023-01-13T10:46:03.803Z,7.18
2023-01-13T10:48:40.980Z,7.25
2023-01-13T10:51:39.884Z,7.39
2023-01-13T10:54:15.304Z,7.29
2023-01-13T10:56:44.842Z,7.49
2023-01-13T10:59:26.961Z,7.49
2023-01-13T11:02:13.115Z,7.57
2023-01-13T11:04:53.201Z,7.60
2023-01-13T11:07:34.607Z,7.64
2023-01-13T11:10:10.505Z,7.56
2023-01-13T11:13:01.887Z,7.46
2023-01-13T11:15:38.570Z,7.48
2023-01-13T11:18:13.313Z,7.54
2023-01-13T11:20:41.386Z,7.59
2023-01-13T11:23:37.968Z,7.68
2023-01-13T11:26:10.794Z,7.75
2023-01-13T11:28:46.452Z,7.67
2023-01-13T11:31:27.872Z,7.77
2023-01-13T11:34:02.022Z,7.73
2023-01-13T11:36:34.314Z,7.71
2023-01-13T11:39:11.639Z,7.78
2023-01-13T11:42:08.939Z,7.73
2023-01-13T11:44:41.601Z,7.67
2023-01-13T11:47:10.620Z,7.71
2023-01-13T11:49:38.570Z,7.74
2023-01-13T11:52:33.784Z,7.83
2023-01-13T11:55:25.761Z,7.77
2023-01-13T11:58:19.222Z,7.73
2023-01-13T12:01:22.934Z,7.75
2023-01-13T12:04:04.796Z,7.70
2023-01-13T12:06:41.111Z,7.76
2023-01-13T12:09:32.806Z,7.81
2023-01-13T12:12:27.582Z,7.80
2023-01-13T12:15:03.305Z,7.78
2023-01-13T12:17:43.384Z,7.76
2023-01-13T12:20:31.005Z,7.74
2023-01-13T12:23:02.281Z,7.72
2023-01-13T12:25:39.731Z,7.72
2023-01-13T12:28:35.919Z,7.72
2023-01-13T12:31:03.267Z,7.78
2023-01-13T12:34:00.236Z,7.76
2023-01-13T12:36:54.887Z,7.80
2023-01-13T12:39:38.102Z,7.82
2023-01-13T12:42:36.469Z,7.80
2023-01-13T12:45:09.769Z,7.81
2023-01-13T12:47:40.346Z,8.03
2023-01-13T12:50:21.876Z,8.04
2023-01-13T12:53:12.537Z,8.12
2023-01-13T12:55:39.076Z,8.00
2023-01-13T12:58:05.665Z,8.01
2023-01-13T13:00:41.178Z,8.07
2023-01-13T13:03:09.833Z,8.07
2023-01-13T13:05:49.056Z,8.03
2023-01-13T13:08:36.107Z,8.00
2023-01-13T13:11:43.564Z,8.02
2023-01-13T13:14:13.813Z,7.93
2023-01-13T13:16:49.458Z,7.89
2023-01-13T13:19:19.179Z,7.86
2023-01-13T13:22:13.715Z,7.89
2023-01-13T13:24:41.718Z,8.00
2023-01-13T13:27:27.475Z,7.89
2023-01-13T13:30:06.025Z,7.88
2023-01-13T13:33:26.281Z,7.94
2023-01-13T13:36:08.017Z,7.92
2023-01-13T13:39:17.035Z,7.94
2023-01-13T13:42:05.880Z,7.97
2023-01-13T13:44:59.813Z,7.94
2023-01-13T13:47:38.378Z,7.87
2023-01-13T13:50:25.519Z,7.87
2023-01-13T13:52:57.717Z,7.90
2023-01-13T13:55:29.082Z,7.91
2023-01-13T13:57:57.515Z,7.83
2023-01-13T14:00:33.912Z,7.80
2023-01-13T14:03:15.972Z,7.84
2023-01-13T14:05:53.630Z,7.80
2023-01-13T14:08:23.185Z,7.81
2023-01-13T14:10:50.144Z,7.79
2023-01-13T14:13:28.605Z,7.75
2023-01-13T14:15:57.189Z,7.70
2023-01-13T14:18:24.075Z,7.71
2023-01-13T14:21:05.648Z,7.57
2023-01-13T14:23:33.432Z,7.54
2023-01-13T14:26:08.686Z,7.55
2023-01-13T14:28:38.833Z,7.64
2023-01-13T14:31:06.685Z,7.57
2023-01-13T14:33:47.688Z,7.58
2023-01-13T14:36:16.012Z,7.63
2023-01-13T14:38:44.819Z,7.66
2023-01-13T14:41:26.241Z,7.73
2023-01-13T14:43:56.454Z,7.66
2023-01-13T14:46:25.418Z,7.73
2023-01-13T14:48:59.882Z,7.69
2023-01-13T14:51:28.446Z,7.66
2023-01-13T14:53:55.651Z,7.69
2023-01-13T14:56:55.234Z,7.63
2023-01-13T14:59:55.973Z,7.67
2023-01-13T15:02:36.428Z,7.63
2023-01-13T15:05:24.222Z,7.64
2023-01-13T15:08:11.463Z,7.64
2023-01-13T15:10:54.819Z,7.73
2023-01-13T15:13:37.810Z,7.70
2023-01-13T15:16:07.391Z,7.72
2023-01-13T15:18:35.989Z,7.80
2023-01-13T15:21:02.638Z,7.81
2023-01-13T15:23:29.234Z,7.86
2023-01-13T15:25:55.942Z,7.91
2023-01-13T15:28:24.988Z,7.86
2023-01-13T15:30:53.422Z,7.88
2023-01-13T15:33:21.109Z,7.83
2023-01-13T15:35:50.010Z,7.93
2023-01-13T15:38:22.315Z,7.85
2023-01-13T15:40:49.764Z,7.89
2023-01-13T15:43:42.726Z,7.91
2023-01-13T15:46:32.455Z,7.85
2023-01-13T15:49:02.472Z,7.91
2023-01-13T15:51:28.937Z,7.93
2023-01-13T15:53:55.560Z,7.84
2023-01-13T15:56:26.594Z,7.84
2023-01-13T15:58:53.215Z,7.91
2023-01-13T16:01:23.303Z,7.85
2023-01-13T16:03:50.318Z,7.95
2023-01-13T16:06:20.178Z,7.86
2023-01-13T16:08:46.692Z,7.88
2023-01-13T16:11:13.584Z,7.97
2023-01-13T16:13:40.210Z,7.94
2023-01-13T16:16:24.111Z,7.89
2023-01-13T16:18:51.823Z,7.87
2023-01-13T16:21:21.827Z,7.82
2023-01-13T16:23:49.534Z,7.90
2023-01-13T16:26:23.382Z,7.92
2023-01-13T16:28:52.312Z,7.93
2023-01-13T16:31:25.740Z,7.83
2023-01-13T16:33:52.777Z,7.87
2023-01-13T16:36:20.883Z,7.97
2023-01-13T16:38:48.637Z,8.02
2023-01-13T16:41:15.727Z,7.90
2023-01-13T16:43:42.464Z,7.95
2023-01-13T16:46:25.341Z,8.00
2023-01-13T16:48:54.261Z,8.02
2023-01-13T16:51:21.859Z,8.10
2023-01-13T16:53:48.823Z,8.09
2023-01-13T16:56:23.799Z,8.11
2023-01-13T16:58:54.501Z,8.07
2023-01-13T17:01:29.429Z,8.09
2023-01-13T17:03:56.837Z,8.14
2023-01-13T17:06:25.383Z,8.16
2023-01-13T17:08:53.382Z,8.20
2023-01-13T17:11:20.929Z,8.18
2023-01-13T17:13:47.679Z,8.24
2023-01-13T17:16:20.902Z,8.12
2023-01-13T17:18:48.317Z,8.13
2023-01-13T17:21:14.980Z,8.15
2023-01-13T17:23:41.901Z,8.06
2023-01-13T17:26:40.086Z,8.11
2023-01-13T17:29:09.997Z,8.09
2023-01-13T17:31:36.854Z,8.14
2023-01-13T17:34:04.272Z,8.07
2023-01-13T17:36:31.351Z,8.14
2023-01-13T17:38:58.245Z,8.06
2023-01-13T17:41:25.998Z,8.08
2023-01-13T17:43:53.456Z,7.99
2023-01-13T17:46:37.470Z,7.97
2023-01-13T17:49:04.277Z,7.84
2023-01-13T17:51:30.982Z,7.80
2023-01-13T17:53:57.486Z,7.83
2023-01-13T17:56:25.480Z,7.84
2023-01-13T17:58:52.360Z,7.73
2023-01-13T18:01:21.376Z,7.75
2023-01-13T18:03:48.335Z,7.72
2023-01-13T18:06:22.927Z,7.80
2023-01-13T18:08:50.022Z,7.82
2023-01-13T18:11:19.242Z,7.83
2023-01-13T18:13:46.757Z,7.85
2023-01-13T18:16:15.217Z,7.78
2023-01-13T18:18:43.592Z,7.81
2023-01-13T18:21:37.125Z,7.83
2023-01-13T18:24:22.785Z,7.88
2023-01-13T18:27:07.983Z,7.86
2023-01-13T18:29:34.552Z,7.86
2023-01-13T18:32:01.290Z,7.90
2023-01-13T18:34:28.021Z,7.89
2023-01-13T18:36:54.548Z,7.89
2023-01-13T18:39:21.422Z,7.88
2023-01-13T18:42:06.738Z,7.81
2023-01-13T18:44:33.354Z,7.82
2023-01-13T18:46:59.974Z,7.90
2023-01-13T18:49:27.318Z,7.90
2023-01-13T18:51:54.029Z,7.91
2023-01-13T18:54:20.828Z,7.80
2023-01-13T18:56:49.164Z,7.83
2023-01-13T18:59:16.835Z,7.86
2023-01-13T19:01:44.000Z,7.90
2023-01-13T19:04:15.865Z,7.88
2023-01-13T19:06:51.894Z,7.97
2023-01-13T19:09:22.819Z,7.86
2023-01-13T19:11:50.520Z,7.86
2023-01-13T19:14:34.284Z,7.81
2023-01-13T19:17:09.793Z,7.78
2023-01-13T19:19:46.015Z,7.75
2023-01-13T19:22:15.120Z,7.70
2023-01-13T19:24:42.166Z,7.71
2023-01-13T19:27:09.807Z,7.76
2023-01-13T19:29:36.485Z,7.71
2023-01-13T19:32:03.488Z,7.65
2023-01-13T19:34:30.404Z,7.68
2023-01-13T19:36:57.285Z,7.65
2023-01-13T19:39:24.039Z,7.61
2023-01-13T19:42:09.315Z,7.56
2023-01-13T19:44:54.643Z,7.53
2023-01-13T19:47:21.182Z,7.55
2023-01-13T19:49:47.888Z,7.54
2023-01-13T19:52:14.553Z,7.50
2023-01-13T19:54:41.161Z,7.59
2023-01-13T19:57:08.012Z,7.52
2023-01-13T19:59:35.586Z,7.56
2023-01-13T20:02:03.954Z,7.55
2023-01-13T20:04:37.754Z,7.57
2023-01-13T20:07:06.471Z,7.51
2023-01-13T20:09:34.430Z,7.51
2023-01-13T20:12:07.461Z,7.52
2023-01-13T20:14:34.307Z,7.49
2023-01-13T20:17:01.295Z,7.47
2023-01-13T20:19:27.889Z,7.47
2023-01-13T20:21:54.467Z,7.49
2023-01-13T20:24:21.372Z,7.50
2023-01-13T20:26:47.969Z,7.48
2023-01-13T20:29:14.717Z,7.46
2023-01-13T20:31:41.535Z,7.43
2023-01-13T20:34:08.798Z,7.47
2023-01-13T20:36:37.423Z,7.46
2023-01-13T20:39:06.322Z,7.44
2023-01-13T20:41:51.667Z,7.47
2023-01-13T20:44:18.817Z,7.46
2023-01-13T20:46:45.669Z,7.48
2023-01-13T20:49:13.470Z,7.40
2023-01-13T20:51:40.115Z,7.43
2023-01-13T20:54:06.986Z,7.43
2023-01-13T20:56:33.673Z,7.32
2023-01-13T20:59:00.415Z,7.31
2023-01-13T21:01:28.000Z,7.28
2023-01-13T21:03:57.617Z,7.17
2023-01-13T21:06:24.486Z,7.08
2023-01-13T21:08:54.147Z,7.15
2023-01-13T21:11:44.149Z,7.07
2023-01-13T21:14:46.102Z,7.02
2023-01-13T21:17:32.784Z,6.99
2023-01-13T21:19:59.918Z,6.97
2023-01-13T21:22:26.670Z,7.01
2023-01-13T21:24:53.263Z,7.02
2023-01-13T21:27:20.934Z,6.99
2023-01-13T21:29:47.459Z,6.97
2023-01-13T21:32:14.260Z,6.96
2023-01-13T21:34:40.850Z,6.87
2023-01-13T21:37:07.689Z,6.82
2023-01-13T21:39:34.379Z,6.76
2023-01-13T21:42:19.901Z,6.70
2023-01-13T21:45:05.397Z,6.74
2023-01-13T21:47:50.300Z,6.68
2023-01-13T21:50:21.162Z,6.67
2023-01-13T21:52:48.854Z,6.55
2023-01-13T21:55:26.121Z,6.56
2023-01-13T21:57:55.119Z,6.55
2023-01-13T22:00:24.007Z,6.50
2023-01-13T22:02:51.133Z,6.47
2023-01-13T22:05:22.448Z,6.45
2023-01-13T22:07:49.278Z,6.46
2023-01-13T22:10:18.936Z,6.51
2023-01-13T22:12:45.847Z,6.50
2023-01-13T22:15:14.469Z,6.47
2023-01-13T22:17:42.477Z,6.46
2023-01-13T22:20:10.678Z,6.51
2023-01-13T22:22:37.267Z,6.53
2023-01-13T22:25:07.148Z,6.49
2023-01-13T22:27:39.406Z,6.50
2023-01-13T22:30:15.859Z,6.47
2023-01-13T22:32:42.613Z,6.45
2023-01-13T22:35:10.242Z,6.45
2023-01-13T22:37:37.294Z,6.38
2023-01-13T22:40:05.055Z,6.41
2023-01-13T22:42:31.719Z,6.39
2023-01-13T22:44:58.254Z,6.40
2023-01-13T22:47:24.989Z,6.60
2023-01-13T22:49:51.590Z,6.57
2023-01-13T22:52:18.581Z,6.58
2023-01-13T22:54:45.306Z,6.57
2023-01-13T22:57:11.925Z,6.51
2023-01-13T22:59:39.136Z,6.48
2023-01-13T23:02:05.799Z,6.47
2023-01-13T23:04:32.373Z,6.49
2023-01-13T23:07:00.287Z,6.52
2023-01-13T23:09:29.855Z,6.49
2023-01-13T23:11:58.988Z,6.47
2023-01-13T23:14:25.703Z,6.39
2023-01-13T23:16:52.649Z,6.45
2023-01-13T23:19:20.043Z,6.40
2023-01-13T23:21:46.573Z,6.34
2023-01-13T23:24:13.183Z,6.35
2023-01-13T23:26:39.707Z,6.33
2023-01-13T23:29:08.469Z,6.32
2023-01-13T23:31:35.161Z,6.31
2023-01-13T23:34:01.824Z,6.33
2023-01-13T23:36:29.013Z,6.20
2023-01-13T23:39:17.501Z,6.17
2023-01-13T23:41:44.185Z,6.09
2023-01-13T23:44:10.688Z,6.13
2023-01-13T23:46:37.348Z,6.09
2023-01-13T23:49:04.023Z,6.07
2023-01-13T23:51:30.765Z,6.01
2023-01-13T23:53:58.145Z,6.01
2023-01-13T23:56:26.849Z,6.00
2023-01-13T23:58:53.819Z,6.03
